NCAR-RAP Real-Time Weather Data

Output produced by METARs form (06 May 2021  15:23 UTC)
found at http://weather.rap.ucar.edu/surface/
 
KJLN 061453Z 31012KT 10SM CLR 17/11 A3023 RMK AO2 SLP234 T01670106 53013
KJLN 061353Z 29009KT 10SM FEW110 15/10 A3021 RMK AO2 SLP228 T01500100
KJLN 061253Z 26008KT 10SM CLR 13/08 A3020 RMK AO2 SLP224 T01280083
KJLN 061153Z 23005KT 10SM CLR 11/07 A3019 RMK AO2 SLP221 T01060072 10111 20083 53011
KJLN 061053Z 23005KT 10SM CLR 09/06 A3017 RMK AO2 SLP214 T00890061
KJLN 060953Z AUTO 23004KT 10SM FEW110 09/06 A3017 RMK AO2 SLP212 T00940061
KJLN 060853Z AUTO 00000KT 10SM SCT120 10/06 A3016 RMK AO2 SLP209 T01000056 56002
KJLN 060753Z AUTO 22005KT 10SM CLR 08/06 A3016 RMK AO2 SLP210 T00830056
KJLN 060653Z AUTO 20004KT 10SM FEW110 09/06 A3016 RMK AO2 SLP211 T00940061
KJLN 060553Z AUTO 18004KT 10SM CLR 11/07 A3017 RMK AO2 SLP212 T01110072 10178 20106 402170033 50000
KJLN 060453Z AUTO 00000KT 10SM CLR 12/08 A3017 RMK AO2 SLP213 T01170078
KJLN 060353Z AUTO 20003KT 10SM CLR 12/08 A3018 RMK AO2 SLP215 T01170078
KJLN 060253Z AUTO 00000KT 10SM CLR 13/07 A3017 RMK AO2 SLP212 T01330067 53007
KJLN 060153Z 32003KT 10SM CLR 13/06 A3014 RMK AO2 SLP203 T01330056
KJLN 060053Z 34005KT 10SM SCT100 16/07 A3012 RMK AO2 SLP199 T01610067